createdAt,value
2018-08-16T00:00:58.470Z,7.23
2018-08-16T00:03:28.778Z,6.27
2018-08-16T00:05:59.037Z,5.27
2018-08-16T00:08:29.393Z,5.30
2018-08-16T00:10:59.758Z,5.30
2018-08-16T00:13:30.073Z,5.50
2018-08-16T00:16:00.655Z,4.70
2018-08-16T00:18:31.013Z,5.23
2018-08-16T00:21:01.545Z,5.00
2018-08-16T00:23:31.796Z,5.00
2018-08-16T00:26:02.141Z,4.80
2018-08-16T00:28:32.385Z,5.00
2018-08-16T00:31:02.661Z,5.43
2018-08-16T00:36:12.817Z,6.33
2018-08-16T00:38:43.322Z,6.57
2018-08-16T00:41:14.197Z,6.20
2018-08-16T00:43:44.487Z,5.87
2018-08-16T00:46:14.873Z,5.93
2018-08-16T00:48:45.153Z,5.83
2018-08-16T00:51:15.481Z,5.87
2018-08-16T00:53:45.781Z,6.13
2018-08-16T00:56:16.217Z,5.70
2018-08-16T00:58:46.452Z,5.50
2018-08-16T01:01:17.032Z,6.20
2018-08-16T01:03:47.630Z,5.33
2018-08-16T01:06:18.193Z,7.33
2018-08-16T01:08:48.802Z,5.97
2018-08-16T01:11:19.529Z,5.17
2018-08-16T01:13:50.161Z,5.90
2018-08-16T01:16:20.481Z,5.03
2018-08-16T01:18:50.786Z,5.83
2018-08-16T01:21:21.112Z,5.70
2018-08-16T01:23:51.454Z,6.10
2018-08-16T01:26:21.844Z,6.00
2018-08-16T01:28:52.289Z,5.17
2018-08-16T01:31:22.605Z,5.30
2018-08-16T01:33:52.987Z,5.03
2018-08-16T01:36:23.298Z,5.00
2018-08-16T01:38:53.589Z,4.87
2018-08-16T01:41:23.942Z,4.83
2018-08-16T01:43:54.552Z,4.80
2018-08-16T01:46:25.385Z,5.00
2018-08-16T01:48:55.908Z,4.30
2018-08-16T01:51:26.633Z,5.03
2018-08-16T01:53:57.278Z,5.23
2018-08-16T01:56:27.653Z,4.93
2018-08-16T01:58:58.323Z,4.80
2018-08-16T02:01:29.021Z,4.37
2018-08-16T02:03:59.741Z,4.37
2018-08-16T02:06:30.521Z,4.70
2018-08-16T02:09:01.100Z,4.83
2018-08-16T02:11:32.069Z,4.57
2018-08-16T02:14:02.913Z,5.50
2018-08-16T02:16:33.753Z,5.73
2018-08-16T02:19:04.453Z,4.93
2018-08-16T02:21:35.240Z,4.90
2018-08-16T02:24:06.002Z,4.30
2018-08-16T02:26:36.818Z,4.63
2018-08-16T02:29:07.457Z,5.03
2018-08-16T02:31:38.033Z,4.17
2018-08-16T02:34:08.411Z,5.47
2018-08-16T02:36:39.156Z,5.57
2018-08-16T02:39:10.953Z,4.80
2018-08-16T02:41:41.871Z,4.43
2018-08-16T02:44:12.609Z,4.33
2018-08-16T02:46:43.489Z,5.20
2018-08-16T02:49:14.234Z,4.93
2018-08-16T02:51:44.549Z,4.67
2018-08-16T02:54:14.761Z,4.27
2018-08-16T02:56:45.109Z,4.20
2018-08-16T02:59:15.421Z,4.67
2018-08-16T03:01:45.740Z,4.60
2018-08-16T03:04:16.354Z,4.90
2018-08-16T03:06:46.904Z,5.17
2018-08-16T03:09:17.528Z,5.10
2018-08-16T03:11:48.161Z,5.83
2018-08-16T03:14:18.797Z,5.50
2018-08-16T03:16:49.682Z,6.13
2018-08-16T03:19:20.367Z,5.33
2018-08-16T03:21:51.085Z,5.53
2018-08-16T03:24:21.778Z,5.70
2018-08-16T03:26:52.660Z,5.27
2018-08-16T03:29:22.912Z,5.80
2018-08-16T03:31:53.413Z,5.40
2018-08-16T03:34:23.699Z,5.23
2018-08-16T03:36:54.237Z,5.40
2018-08-16T03:39:24.485Z,4.63
2018-08-16T03:41:54.759Z,4.80
2018-08-16T03:44:25.037Z,4.57
2018-08-16T03:46:55.344Z,4.80
2018-08-16T03:49:25.916Z,4.37
2018-08-16T03:51:56.169Z,4.97
2018-08-16T03:54:26.469Z,4.83
2018-08-16T03:56:57.522Z,5.57
2018-08-16T03:59:27.777Z,4.60
2018-08-16T04:01:58.052Z,4.40
2018-08-16T04:04:28.377Z,5.13
2018-08-16T04:06:58.735Z,5.17
2018-08-16T04:09:29.041Z,5.30
2018-08-16T04:11:59.778Z,5.40
2018-08-16T04:14:30.029Z,4.90
2018-08-16T04:17:00.551Z,5.70
2018-08-16T04:19:30.853Z,5.43
2018-08-16T04:22:01.211Z,4.83
2018-08-16T04:24:31.449Z,5.57
2018-08-16T04:27:01.921Z,5.87
2018-08-16T04:29:32.211Z,5.33
2018-08-16T04:32:02.626Z,5.57
2018-08-16T04:34:32.917Z,6.23
2018-08-16T04:37:03.350Z,6.50
2018-08-16T04:39:33.769Z,5.13
2018-08-16T04:42:04.044Z,6.03
2018-08-16T04:44:34.329Z,6.20
2018-08-16T04:47:04.950Z,6.30
2018-08-16T04:49:35.179Z,6.97
2018-08-16T04:52:05.919Z,7.77
2018-08-16T04:54:36.205Z,9.03
2018-08-16T04:57:06.562Z,7.90
2018-08-16T04:59:36.949Z,7.83
2018-08-16T05:02:07.276Z,9.37
2018-08-16T05:04:37.569Z,9.67
2018-08-16T05:07:07.828Z,9.40
2018-08-16T05:09:38.098Z,9.70
2018-08-16T05:12:08.607Z,8.30
2018-08-16T05:14:38.833Z,7.93
2018-08-16T05:17:09.357Z,7.43
2018-08-16T05:19:39.973Z,7.90
2018-08-16T05:22:10.257Z,7.30
2018-08-16T05:24:41.520Z,6.30
2018-08-16T05:27:11.809Z,7.60
2018-08-16T05:29:42.212Z,7.13
2018-08-16T05:32:12.574Z,5.73
2018-08-16T05:34:42.941Z,6.17
2018-08-16T05:37:13.250Z,3.83
2018-08-16T05:39:43.616Z,6.77
2018-08-16T05:42:13.933Z,3.67
2018-08-16T05:44:44.265Z,4.00
2018-08-16T05:47:14.812Z,3.87
2018-08-16T05:49:45.119Z,4.27
2018-08-16T05:52:15.528Z,4.20
2018-08-16T05:54:45.753Z,3.70
2018-08-16T05:57:16.160Z,4.00
2018-08-16T05:59:46.496Z,2.97
2018-08-16T06:02:16.905Z,4.37
2018-08-16T06:04:47.242Z,4.23
2018-08-16T06:07:17.673Z,3.70
2018-08-16T06:09:47.904Z,3.93
2018-08-16T06:12:18.260Z,3.70
2018-08-16T06:14:48.521Z,4.00
2018-08-16T06:17:18.988Z,4.20
2018-08-16T06:19:49.290Z,3.60
2018-08-16T06:22:19.688Z,12.23
2018-08-16T06:24:49.977Z,8.77
2018-08-16T06:27:20.472Z,9.37
2018-08-16T06:29:50.780Z,7.57
2018-08-16T06:32:21.059Z,4.00
2018-08-16T06:34:51.357Z,3.63
2018-08-16T06:37:21.609Z,3.80
2018-08-16T06:39:52.345Z,4.03
2018-08-16T06:42:22.658Z,4.73
2018-08-16T06:44:53.241Z,3.97
2018-08-16T06:47:23.500Z,3.77
2018-08-16T06:49:53.825Z,3.63
2018-08-16T06:52:24.159Z,3.80
2018-08-16T06:54:54.588Z,3.70
2018-08-16T06:57:24.914Z,3.47
2018-08-16T06:59:55.260Z,3.67
2018-08-16T07:02:25.780Z,3.43
2018-08-16T07:04:56.543Z,3.90
2018-08-16T07:07:27.141Z,3.80
2018-08-16T07:09:57.446Z,3.70
2018-08-16T07:12:28.085Z,3.80
2018-08-16T07:14:58.349Z,6.37
2018-08-16T07:17:29.158Z,5.33
2018-08-16T07:19:59.440Z,3.80
2018-08-16T07:22:29.884Z,3.80
2018-08-16T07:25:00.238Z,3.70
2018-08-16T07:27:30.594Z,3.57
2018-08-16T07:30:01.188Z,3.63
2018-08-16T07:32:31.782Z,3.73
2018-08-16T07:35:02.057Z,4.00
2018-08-16T07:37:32.431Z,4.35
2018-08-16T07:40:02.782Z,3.70
2018-08-16T07:42:33.242Z,3.50
2018-08-16T07:45:03.755Z,4.00
2018-08-16T07:47:34.423Z,3.90
2018-08-16T07:50:07.772Z,4.27
2018-08-16T07:52:38.690Z,4.10
2018-08-16T07:55:09.673Z,3.90
2018-08-16T07:57:40.469Z,3.62
2018-08-16T08:00:16.156Z,3.33
2018-08-16T08:02:47.282Z,3.22
2018-08-16T08:05:17.710Z,3.50
2018-08-16T08:07:48.197Z,4.20
2018-08-16T08:10:18.636Z,4.30
2018-08-16T08:12:49.233Z,4.00
2018-08-16T08:15:19.550Z,4.42
2018-08-16T08:17:49.933Z,3.60
2018-08-16T08:20:20.393Z,3.20
2018-08-16T08:22:50.679Z,3.02
2018-08-16T08:25:21.215Z,3.47
2018-08-16T08:27:51.494Z,3.05
2018-08-16T08:30:21.889Z,4.03
2018-08-16T08:32:52.264Z,3.45
2018-08-16T08:35:22.533Z,3.45
2018-08-16T08:38:02.481Z,4.42
2018-08-16T08:40:32.843Z,3.60
2018-08-16T08:43:03.250Z,3.10
2018-08-16T08:45:33.637Z,3.30
2018-08-16T08:48:03.940Z,3.45
2018-08-16T08:50:34.501Z,3.42
2018-08-16T08:53:21.241Z,2.47
2018-08-16T08:56:07.903Z,2.75
2018-08-16T08:58:51.700Z,2.70
2018-08-16T09:01:22.257Z,4.83
2018-08-16T09:03:52.662Z,3.10
2018-08-16T09:06:22.981Z,3.42
2018-08-16T09:08:53.233Z,2.77
2018-08-16T09:11:39.765Z,2.83
2018-08-16T09:14:26.424Z,2.92
2018-08-16T09:16:56.852Z,2.72
2018-08-16T09:19:27.182Z,3.00
2018-08-16T09:21:57.661Z,2.65
2018-08-16T09:24:28.005Z,2.87
2018-08-16T09:26:58.591Z,2.98
2018-08-16T09:30:43.761Z,2.45
2018-08-16T09:33:30.537Z,2.77
2018-08-16T09:36:00.857Z,2.25
2018-08-16T09:38:31.337Z,3.05
2018-08-16T09:41:01.727Z,3.12
2018-08-16T09:43:32.190Z,2.55
2018-08-16T09:48:13.737Z,2.87
2018-08-16T09:50:44.397Z,2.85
2018-08-16T09:53:14.666Z,2.87
2018-08-16T09:55:45.062Z,4.05
2018-08-16T09:58:15.387Z,2.70
2018-08-16T10:00:50.646Z,2.58
2018-08-16T10:03:21.236Z,2.42
2018-08-16T10:05:51.549Z,2.50
2018-08-16T10:08:22.145Z,2.70
2018-08-16T10:10:52.489Z,2.50
2018-08-16T10:13:22.820Z,2.77
2018-08-16T10:15:53.137Z,2.92
2018-08-16T10:18:23.512Z,3.42
2018-08-16T10:20:53.915Z,2.52
2018-08-16T10:23:24.277Z,2.50
2018-08-16T10:25:54.525Z,2.70
2018-08-16T10:28:24.909Z,2.20
2018-08-16T10:30:55.274Z,2.70
2018-08-16T10:33:25.637Z,2.15
2018-08-16T10:35:55.953Z,2.20
2018-08-16T10:38:26.458Z,2.12
2018-08-16T10:40:56.757Z,2.72
2018-08-16T10:43:27.203Z,2.37
2018-08-16T10:45:57.553Z,2.35
2018-08-16T10:48:27.936Z,2.55
2018-08-16T10:50:58.233Z,2.35
2018-08-16T10:53:28.993Z,2.42
2018-08-16T10:56:00.237Z,1.90
2018-08-16T10:58:31.005Z,2.58
2018-08-16T11:01:01.489Z,2.30
2018-08-16T11:03:32.175Z,2.40
2018-08-16T11:06:02.686Z,21.40
2018-08-16T11:08:33.100Z,2.58
2018-08-16T11:11:03.445Z,2.90
2018-08-16T11:13:34.098Z,2.20
2018-08-16T11:16:04.474Z,2.40
2018-08-16T11:18:34.846Z,2.58
2018-08-16T11:21:05.225Z,2.55
2018-08-16T11:23:35.669Z,2.10
2018-08-16T11:26:06.094Z,2.72
2018-08-16T11:28:36.384Z,2.10
2018-08-16T11:31:06.809Z,2.60
2018-08-16T11:33:37.093Z,2.33
2018-08-16T11:36:07.557Z,2.17
2018-08-16T11:38:37.938Z,2.20
2018-08-16T11:41:08.580Z,2.10
2018-08-16T11:43:38.837Z,2.60
2018-08-16T11:46:09.332Z,2.22
2018-08-16T11:48:39.616Z,5.67
2018-08-16T11:51:10.137Z,2.60
2018-08-16T11:53:40.384Z,2.20
2018-08-16T11:56:10.784Z,2.67
2018-08-16T11:58:41.142Z,3.20
2018-08-16T12:01:11.567Z,2.85
2018-08-16T12:03:41.873Z,2.22
2018-08-16T12:06:12.431Z,2.17
2018-08-16T12:08:42.714Z,2.47
2018-08-16T12:11:13.293Z,2.12
2018-08-16T12:13:43.601Z,2.40
2018-08-16T12:16:14.112Z,2.05
2018-08-16T12:18:44.438Z,2.30
2018-08-16T12:21:14.957Z,3.20
2018-08-16T12:23:45.281Z,2.60
2018-08-16T12:26:15.655Z,3.40
2018-08-16T12:28:45.982Z,2.42
2018-08-16T12:31:16.530Z,3.12
2018-08-16T12:33:46.799Z,2.45
2018-08-16T12:36:17.162Z,2.47
2018-08-16T12:38:47.445Z,2.65
2018-08-16T12:41:17.837Z,2.42
2018-08-16T12:43:48.231Z,3.87
2018-08-16T12:46:18.794Z,3.05
2018-08-16T12:48:49.138Z,3.58
2018-08-16T12:51:20.021Z,3.17
2018-08-16T12:53:50.395Z,3.72
2018-08-16T12:56:20.905Z,2.87
2018-08-16T12:58:51.251Z,3.72
2018-08-16T13:01:21.625Z,2.95
2018-08-16T13:03:52.462Z,2.40
2018-08-16T13:06:22.756Z,2.50
2018-08-16T13:08:53.298Z,2.87
2018-08-16T13:11:23.698Z,5.85
2018-08-16T13:13:54.265Z,14.45
2018-08-16T13:16:24.650Z,4.28
2018-08-16T13:18:55.254Z,7.83
2018-08-16T13:21:25.594Z,8.93
2018-08-16T13:23:56.037Z,4.72
2018-08-16T13:26:26.355Z,4.75
2018-08-16T13:28:56.629Z,4.08
2018-08-16T13:31:27.012Z,4.30
2018-08-16T13:33:57.452Z,3.67
2018-08-16T13:36:27.781Z,3.92
2018-08-16T13:38:58.089Z,2.95
2018-08-16T13:41:28.562Z,3.80
2018-08-16T13:43:58.869Z,3.22
2018-08-16T13:46:29.429Z,3.08
2018-08-16T13:48:59.785Z,3.22
2018-08-16T13:51:30.251Z,3.47
2018-08-16T13:54:00.593Z,3.22
2018-08-16T13:56:31.125Z,3.30
2018-08-16T13:59:01.519Z,3.22
2018-08-16T14:01:32.012Z,2.80
2018-08-16T14:04:02.333Z,3.22
2018-08-16T14:06:32.664Z,3.25
2018-08-16T14:09:03.077Z,2.87
2018-08-16T14:11:33.762Z,3.20
2018-08-16T14:14:04.329Z,2.92
2018-08-16T14:16:34.965Z,3.25
2018-08-16T14:19:05.825Z,3.00
2018-08-16T14:21:36.255Z,3.20
2018-08-16T14:24:06.857Z,3.00
2018-08-16T14:26:37.271Z,3.17
2018-08-16T14:29:07.634Z,2.80
2018-08-16T14:31:38.026Z,3.27
2018-08-16T14:34:08.353Z,3.90
2018-08-16T14:36:38.928Z,3.40
2018-08-16T14:39:11.887Z,3.52
2018-08-16T14:41:42.763Z,3.58
2018-08-16T14:44:13.139Z,3.60
2018-08-16T14:46:43.718Z,3.25
2018-08-16T14:49:14.082Z,3.30
2018-08-16T14:51:44.406Z,3.50
2018-08-16T14:54:15.008Z,3.90
2018-08-16T14:56:45.357Z,3.00
2018-08-16T14:59:15.798Z,3.40
2018-08-16T15:01:46.135Z,3.87
2018-08-16T15:04:16.433Z,4.08
2018-08-16T15:06:46.853Z,3.55
2018-08-16T15:09:17.621Z,3.22
2018-08-16T15:11:48.003Z,3.90
2018-08-16T15:14:18.253Z,3.42
2018-08-16T15:16:48.829Z,3.20
2018-08-16T15:19:20.458Z,3.37
2018-08-16T15:21:50.846Z,6.60
2018-08-16T15:24:22.041Z,10.00
2018-08-16T15:26:52.821Z,4.80
2018-08-16T15:29:23.436Z,5.05
2018-08-16T15:31:54.101Z,4.72
2018-08-16T15:34:24.584Z,4.65
2018-08-16T15:36:55.400Z,3.47
2018-08-16T15:39:26.102Z,3.40
2018-08-16T15:41:56.958Z,3.60
2018-08-16T15:44:27.573Z,4.17
2018-08-16T15:46:58.429Z,3.75
2018-08-16T15:49:29.099Z,3.45
2018-08-16T15:52:00.047Z,2.83
2018-08-16T15:54:30.700Z,3.50
2018-08-16T15:57:01.614Z,3.05
2018-08-16T15:59:32.245Z,3.72
2018-08-16T16:02:02.812Z,3.10
2018-08-16T16:04:33.481Z,4.08
2018-08-16T16:07:04.249Z,3.30
2018-08-16T16:09:34.945Z,3.27
2018-08-16T16:12:05.613Z,3.52
2018-08-16T16:14:36.256Z,3.15
2018-08-16T16:17:06.937Z,3.30
2018-08-16T16:19:38.062Z,3.10
2018-08-16T16:22:08.764Z,3.17
2018-08-16T16:24:39.401Z,3.20
2018-08-16T16:27:10.181Z,2.83
2018-08-16T16:29:40.684Z,3.15
2018-08-16T16:32:11.545Z,3.45
2018-08-16T16:34:42.128Z,4.53
2018-08-16T16:37:12.997Z,3.30
2018-08-16T16:39:43.594Z,3.52
2018-08-16T16:42:14.386Z,3.58
2018-08-16T16:44:44.857Z,3.85
2018-08-16T16:47:15.527Z,3.83
2018-08-16T16:49:45.858Z,4.20
2018-08-16T16:52:16.410Z,3.25
2018-08-16T16:54:46.729Z,3.42
2018-08-16T16:57:17.586Z,4.28
2018-08-16T16:59:47.933Z,3.72
2018-08-16T17:02:18.378Z,3.83
2018-08-16T17:04:48.711Z,3.80
2018-08-16T17:07:19.464Z,4.15
2018-08-16T17:09:50.083Z,4.30
2018-08-16T17:12:20.660Z,4.10
2018-08-16T17:14:51.094Z,3.35
2018-08-16T17:17:21.785Z,3.25
2018-08-16T17:19:52.478Z,3.92
2018-08-16T17:22:23.224Z,4.28
2018-08-16T17:24:53.938Z,3.83
2018-08-16T17:27:24.765Z,3.62
2018-08-16T17:29:55.322Z,3.70
2018-08-16T17:32:26.298Z,3.35
2018-08-16T17:34:56.964Z,3.87
2018-08-16T17:37:27.710Z,3.87
2018-08-16T17:39:58.413Z,3.60
2018-08-16T17:42:29.081Z,4.00
2018-08-16T17:44:59.755Z,3.90
2018-08-16T17:47:30.396Z,5.30
2018-08-16T17:50:01.212Z,4.20
2018-08-16T17:52:32.105Z,3.60
2018-08-16T17:55:02.834Z,3.80
2018-08-16T17:57:33.657Z,3.90
2018-08-16T18:00:04.453Z,3.97
2018-08-16T18:02:35.078Z,4.23
2018-08-16T18:05:05.845Z,4.10
2018-08-16T18:07:36.781Z,3.77
2018-08-16T18:10:08.974Z,3.67
2018-08-16T18:12:39.800Z,3.83
2018-08-16T18:15:12.556Z,3.57
2018-08-16T18:17:43.282Z,3.60
2018-08-16T18:20:13.830Z,3.87
2018-08-16T18:22:44.590Z,4.30
2018-08-16T18:25:15.234Z,3.77
2018-08-16T18:27:45.942Z,4.70
2018-08-16T18:30:16.585Z,4.13
2018-08-16T18:32:47.344Z,4.00
2018-08-16T18:35:17.995Z,3.60
2018-08-16T18:37:48.609Z,3.60
2018-08-16T18:40:19.366Z,3.77
2018-08-16T18:42:50.038Z,3.67
2018-08-16T18:45:20.381Z,3.50
2018-08-16T18:47:51.044Z,3.50
2018-08-16T18:50:21.350Z,3.40
2018-08-16T18:52:51.708Z,3.67
2018-08-16T18:55:22.372Z,3.43
2018-08-16T18:57:52.697Z,3.43
2018-08-16T19:00:23.069Z,3.30
2018-08-16T19:02:53.428Z,3.60
2018-08-16T19:05:23.783Z,3.47
2018-08-16T19:07:54.178Z,3.30
2018-08-16T19:10:24.474Z,3.40
2018-08-16T19:12:54.846Z,3.63
2018-08-16T19:15:25.161Z,3.57
2018-08-16T19:17:55.672Z,3.63
2018-08-16T19:20:26.407Z,3.47
2018-08-16T19:22:56.900Z,4.63
2018-08-16T19:25:27.513Z,3.87
2018-08-16T19:27:57.995Z,3.70
2018-08-16T19:30:28.268Z,4.10
2018-08-16T19:32:58.708Z,3.70
2018-08-16T19:35:29.027Z,3.97
2018-08-16T19:37:59.434Z,4.50
2018-08-16T19:40:29.876Z,3.37
2018-08-16T19:43:00.099Z,3.97
2018-08-16T19:45:30.581Z,4.10
2018-08-16T19:48:00.977Z,3.93
2018-08-16T19:50:31.442Z,4.70
2018-08-16T19:53:01.817Z,4.07
2018-08-16T19:55:32.067Z,3.77
2018-08-16T19:58:02.532Z,4.30
2018-08-16T20:00:33.117Z,3.60
2018-08-16T20:03:03.644Z,3.57
2018-08-16T20:05:33.848Z,3.47
2018-08-16T20:08:04.338Z,4.23
2018-08-16T20:10:34.956Z,3.20
2018-08-16T20:13:05.752Z,3.57
2018-08-16T20:15:36.389Z,4.00
2018-08-16T20:18:07.217Z,3.80
2018-08-16T20:20:38.053Z,4.57
2018-08-16T20:23:08.597Z,3.70
2018-08-16T20:25:39.249Z,4.83
2018-08-16T20:28:09.921Z,4.63
2018-08-16T20:30:40.690Z,4.77
2018-08-16T20:33:11.608Z,4.40
2018-08-16T20:35:42.225Z,4.97
2018-08-16T20:38:12.967Z,4.30
2018-08-16T20:40:43.729Z,4.30
2018-08-16T20:43:14.560Z,4.90
2018-08-16T20:45:45.392Z,5.00
2018-08-16T20:48:16.173Z,4.87
2018-08-16T20:50:46.894Z,5.10
2018-08-16T20:53:17.837Z,5.90
2018-08-16T20:55:48.465Z,5.00
2018-08-16T20:58:19.372Z,5.80
2018-08-16T21:00:50.150Z,4.80
2018-08-16T21:03:20.952Z,5.93
2018-08-16T21:05:51.412Z,6.10
2018-08-16T21:08:22.080Z,6.27
2018-08-16T21:10:52.642Z,6.53
2018-08-16T21:13:23.233Z,6.13
2018-08-16T21:15:53.748Z,5.87
2018-08-16T21:18:24.412Z,5.97
2018-08-16T21:20:54.989Z,6.67
2018-08-16T21:23:25.665Z,7.20
2018-08-16T21:25:56.358Z,6.63
2018-08-16T21:28:27.074Z,7.67
2018-08-16T21:30:57.704Z,8.70
2018-08-16T21:33:28.441Z,8.67
2018-08-16T21:35:59.032Z,8.90
2018-08-16T21:38:29.704Z,8.80
2018-08-16T21:41:00.341Z,8.97
2018-08-16T21:43:31.012Z,8.50
2018-08-16T21:46:01.755Z,7.90
2018-08-16T21:48:32.805Z,8.37
